Wake Island Airfield, Wake Island

6:41 PM WAKT on October 23, 2014 (GMT +1200)
Wake Island Army Air Field | Change Station
CLOSE
Current Station
Airport
Location: Wake Island, Wake Island Army,
Elevation: 13 ft
Nearby Weather Stations

Elev 13 ft 19.28 °N, 166.64 °E | Updated 43 minutes ago

Clear
Clear
84 °F
Feels Like 92 °F
N
0
Wind Variable Wind from North

Today
High -- | Low -- °F
--% Chance of Precip.
Yesterday
High -- | Low -- °F
Precip. -- in
6:50 AM 6:25 PM
Waning Crescent, 0% visible
Pressure 29.87 in
Visibility 6.2 miles
Clouds Clear
Heat Index 92 °F
Dew Point 75 °F
Humidity 76%
Rainfall 0.00 in
Snow Depth Not available.
UV 0 out of 12
Pollen Not available.
Air Quality Not available.
Flu Activity Not available.
METAR PWAK 230558Z AUTO 00000KT 9999 CLR 29/24 A2985 RMK AO2 SLP115 T02870240 10310 20287 53005

More Conditions Fewer Conditions

Pressure 29.87 in
Visibility 6.2 miles
Clouds Clear
Heat Index 92 °F
Dew Point 75 °F
Humidity 76%
Rainfall 0.00 in
Snow Depth Not available.
UV 0 out of 12
Pollen Not available.
Air Quality Not available.
Flu Activity Not available.
METAR PWAK 230558Z AUTO 00000KT 9999 CLR 29/24 A2985 RMK AO2 SLP115 T02870240 10310 20287 53005

More Conditions Fewer Conditions

10-Day Weather Forecast

Almanac

Astronomy

Oct. 23, 2014 Rise Set
Actual Time 6:50 AM WAKT 6:25 PM WAKT
Civil Twilight 6:27 AM WAKT 6:47 PM WAKT
Nautical Twilight 6:02 AM WAKT 7:13 PM WAKT
Astronomical Twilight 5:36 AM WAKT 7:38 PM WAKT
Moon 5:56 AM WAKT 5:56 PM WAKT
Length of Visible Light 12h 19m
Length of Day
11h 35m
Tomorrow will be 1m 1s shorter.
Waning Crescent, 0% of the Moon is Illuminated
Today
Waning Crescent
Oct 23
New
Oct 30
First Quarter
Nov 6
Full
Nov 14
Last Quarter

Yesterday's Extremes

Country Highs Country Lows

Community

WunderPhotos

Upload Photos

1,764,194 photos uploaded!

Nearby

Snow Depth

Not available.

Earthquake Activity

City Distance Mag. Time & Date
No recent earthquake activity has been reported nearby.
Minimum magnitude displayed is 2.5.

Coastal Water Temperatures

Place Temperature
No Stations Reporting

Nearby Weather Stations